createdAt,value
2023-04-18T00:01:21.401Z,97793.66
2023-04-18T00:03:49.852Z,97779.63
2023-04-18T00:06:16.593Z,97803.88
2023-04-18T00:08:43.129Z,97809.91
2023-04-18T00:11:09.696Z,97800.56
2023-04-18T00:13:38.425Z,97804.00
2023-04-18T00:16:05.963Z,97805.66
2023-04-18T00:18:32.976Z,97801.44
2023-04-18T00:20:59.469Z,97802.25
2023-04-18T00:23:28.223Z,97797.16
2023-04-18T00:25:54.783Z,97794.63
2023-04-18T00:28:21.368Z,97795.47
2023-04-18T00:30:48.896Z,97790.31
2023-04-18T00:33:15.767Z,97783.22
2023-04-18T00:35:42.306Z,97779.91
2023-04-18T00:38:08.867Z,97792.06
2023-04-18T00:40:35.548Z,97791.19
2023-04-18T00:43:02.540Z,97780.84
2023-04-18T00:45:29.027Z,97792.06
2023-04-18T00:47:56.188Z,97779.84
2023-04-18T00:50:23.418Z,97786.03
2023-04-18T00:52:49.948Z,97793.72
2023-04-18T00:55:16.422Z,97782.22
2023-04-18T00:57:42.937Z,97799.66
2023-04-18T01:00:12.973Z,97793.66
2023-04-18T01:02:39.834Z,97784.84
2023-04-18T01:05:07.244Z,97798.78
2023-04-18T01:07:34.652Z,97786.84
2023-04-18T01:10:01.571Z,97778.94
2023-04-18T01:12:28.078Z,97780.84
2023-04-18T01:14:54.661Z,97785.19
2023-04-18T01:17:22.567Z,97784.34
2023-04-18T01:19:49.164Z,97754.81
2023-04-18T01:22:15.758Z,97779.13
2023-04-18T01:24:42.248Z,97784.34
2023-04-18T01:27:11.723Z,97786.03
2023-04-18T01:29:39.080Z,97790.31
2023-04-18T01:32:06.268Z,97791.19
2023-04-18T01:34:32.750Z,97787.69
2023-04-18T01:36:59.413Z,97796.28
2023-04-18T01:39:25.922Z,97793.72
2023-04-18T01:41:52.517Z,97781.81
2023-04-18T01:44:19.047Z,97784.34
2023-04-18T01:46:45.733Z,97779.97
2023-04-18T01:49:12.299Z,97775.88
2023-04-18T01:51:38.966Z,97785.19
2023-04-18T01:54:05.533Z,97780.03
2023-04-18T01:56:32.068Z,97773.31
2023-04-18T01:58:58.614Z,97771.66
2023-04-18T02:01:25.344Z,97772.44
2023-04-18T02:03:51.993Z,97765.56
2023-04-18T02:06:18.599Z,97762.94
2023-04-18T02:08:45.154Z,97778.38
2023-04-18T02:11:11.672Z,97764.59
2023-04-18T02:13:38.202Z,97771.59
2023-04-18T02:16:05.054Z,97774.16
2023-04-18T02:18:34.516Z,97780.91
2023-04-18T02:21:01.090Z,97780.03
2023-04-18T02:23:27.614Z,97774.03
2023-04-18T02:25:54.582Z,97780.03
2023-04-18T02:28:21.122Z,97778.38
2023-04-18T02:30:47.696Z,97781.81
2023-04-18T02:33:14.207Z,97780.91
2023-04-18T02:35:41.101Z,97779.97
2023-04-18T02:38:07.684Z,97786.91
2023-04-18T02:40:34.174Z,97779.19
2023-04-18T02:43:02.161Z,97774.16
2023-04-18T02:45:28.727Z,97775.75
2023-04-18T02:47:56.704Z,97778.38
2023-04-18T02:50:24.103Z,97776.50
2023-04-18T02:52:51.007Z,97780.03
2023-04-18T02:55:17.617Z,97770.59
2023-04-18T02:57:44.187Z,97789.44
2023-04-18T03:00:11.396Z,97786.91
2023-04-18T03:02:37.941Z,97782.66
2023-04-18T03:05:05.675Z,97784.34
2023-04-18T03:07:32.385Z,97782.66
2023-04-18T03:09:59.994Z,97776.63
2023-04-18T03:12:26.586Z,97784.34
2023-04-18T03:14:53.143Z,97786.03
2023-04-18T03:17:19.720Z,97784.34
2023-04-18T03:19:46.516Z,97788.56
2023-04-18T03:22:13.466Z,97788.56
2023-04-18T03:24:40.017Z,97781.81
2023-04-18T03:27:06.559Z,97778.31
2023-04-18T03:29:33.396Z,97783.47
2023-04-18T03:31:59.914Z,97784.28
2023-04-18T03:34:27.214Z,97776.56
2023-04-18T03:36:54.070Z,97777.50
2023-04-18T03:39:20.617Z,97767.97
2023-04-18T03:41:47.172Z,97776.63
2023-04-18T03:44:13.797Z,97772.38
2023-04-18T03:46:40.714Z,97773.22
2023-04-18T03:49:07.300Z,97772.25
2023-04-18T03:51:49.050Z,97766.44
2023-04-18T03:54:16.535Z,97758.53
2023-04-18T03:56:43.365Z,97772.38
2023-04-18T03:59:10.468Z,97777.50
2023-04-18T04:01:37.349Z,97783.34
2023-04-18T04:04:04.522Z,97782.59
2023-04-18T04:06:32.138Z,97785.13
2023-04-18T04:08:58.671Z,97773.84
2023-04-18T04:11:25.493Z,97781.63
2023-04-18T04:13:52.053Z,97783.41
2023-04-18T04:16:18.668Z,97788.56
2023-04-18T04:18:45.420Z,97791.06
2023-04-18T04:21:11.947Z,97794.56
2023-04-18T04:23:38.453Z,97791.13
2023-04-18T04:26:05.092Z,97791.13
2023-04-18T04:28:31.697Z,97794.50
2023-04-18T04:30:58.281Z,97797.94
2023-04-18T04:33:33.316Z,97798.78
2023-04-18T04:36:01.152Z,97805.59
2023-04-18T04:38:31.053Z,97799.59
2023-04-18T04:40:58.234Z,97805.59
2023-04-18T04:43:25.594Z,97800.38
2023-04-18T04:45:53.088Z,97798.84
2023-04-18T04:48:21.920Z,97791.81
2023-04-18T04:50:56.020Z,97777.88
2023-04-18T04:53:23.344Z,97791.00
2023-04-18T04:55:49.920Z,97803.94
2023-04-18T04:58:16.466Z,97789.16
2023-04-18T05:00:43.010Z,97804.81
2023-04-18T05:03:10.189Z,97804.75
2023-04-18T05:05:36.978Z,97803.81
2023-04-18T05:08:03.750Z,97816.69
2023-04-18T05:10:30.659Z,97817.56
2023-04-18T05:12:57.275Z,97824.34
2023-04-18T05:15:24.536Z,97725.28
2023-04-18T05:17:51.185Z,97813.91
2023-04-18T05:20:17.700Z,97796.56
2023-04-18T05:22:44.262Z,97825.22
2023-04-18T05:25:10.812Z,97751.22
2023-04-18T05:27:37.362Z,97787.78
2023-04-18T05:30:04.117Z,97779.06
2023-04-18T05:32:30.901Z,97775.47
2023-04-18T05:34:57.446Z,97784.16
2023-04-18T05:37:24.078Z,97757.19
2023-04-18T05:39:50.843Z,97773.06
2023-04-18T05:42:17.374Z,97818.94
2023-04-18T05:44:43.890Z,97828.56
2023-04-18T05:47:10.459Z,97779.50
2023-04-18T05:49:37.002Z,97816.19
2023-04-18T05:52:03.589Z,97822.25
2023-04-18T05:54:30.153Z,97813.59
2023-04-18T05:56:57.242Z,97810.84
2023-04-18T05:59:23.839Z,97817.00
2023-04-18T06:01:51.453Z,97800.34
2023-04-18T06:04:19.723Z,97802.81
2023-04-18T06:06:46.738Z,97815.06
2023-04-18T06:09:13.522Z,97825.31
2023-04-18T06:11:40.098Z,97844.63
2023-04-18T06:14:07.701Z,97788.75
2023-04-18T06:16:34.322Z,97828.75
2023-04-18T06:19:02.387Z,97769.63
2023-04-18T06:21:29.108Z,97818.31
2023-04-18T06:23:55.765Z,97813.78
2023-04-18T06:26:22.387Z,97798.03
2023-04-18T06:28:48.906Z,97833.94
2023-04-18T06:31:15.460Z,97858.19
2023-04-18T06:33:42.088Z,97819.19
2023-04-18T06:36:09.003Z,97731.06
2023-04-18T06:38:35.695Z,97790.22
2023-04-18T06:41:02.252Z,97839.09
2023-04-18T06:43:28.784Z,97786.84
2023-04-18T06:45:56.571Z,97818.13
2023-04-18T06:48:23.281Z,97841.69
2023-04-18T06:50:49.862Z,97850.41
2023-04-18T06:53:16.348Z,97753.84
2023-04-18T06:55:42.879Z,97813.66
2023-04-18T06:58:10.098Z,97832.06
2023-04-18T07:00:36.918Z,97857.25
2023-04-18T07:03:11.114Z,97863.25
2023-04-18T07:05:38.197Z,97783.16
2023-04-18T07:08:04.732Z,97855.34
2023-04-18T07:10:31.269Z,97821.50
2023-04-18T07:12:57.788Z,97788.81
2023-04-18T07:15:24.461Z,97858.72
2023-04-18T07:17:51.060Z,97797.09
2023-04-18T07:20:17.614Z,97782.25
2023-04-18T07:22:44.199Z,97842.28
2023-04-18T07:25:11.879Z,97845.72
2023-04-18T07:27:38.465Z,97838.97
2023-04-18T07:30:05.538Z,97873.50
2023-04-18T07:32:32.151Z,97795.91
2023-04-18T07:34:59.192Z,97791.06
2023-04-18T07:37:26.124Z,97799.47
2023-04-18T07:39:52.812Z,97855.66
2023-04-18T07:42:19.382Z,97827.38
2023-04-18T07:44:46.957Z,97851.16
2023-04-18T07:47:13.492Z,97803.06
2023-04-18T07:49:40.021Z,97851.72
2023-04-18T07:52:06.597Z,97799.78
2023-04-18T07:54:33.146Z,97842.41
2023-04-18T07:56:59.808Z,97763.06
2023-04-18T07:59:27.790Z,97766.63
2023-04-18T08:01:54.369Z,97828.38
2023-04-18T08:04:21.059Z,97826.66
2023-04-18T08:06:47.649Z,97852.03
2023-04-18T08:09:14.555Z,97863.19
2023-04-18T08:11:42.229Z,97772.63
2023-04-18T08:14:08.747Z,97805.81
2023-04-18T08:16:35.347Z,97778.88
2023-04-18T08:19:01.875Z,97823.22
2023-04-18T08:21:28.407Z,97763.34
2023-04-18T08:23:55.484Z,97790.09
2023-04-18T08:26:22.210Z,97851.03
2023-04-18T08:28:49.589Z,97823.97
2023-04-18T08:31:17.116Z,97858.00
2023-04-18T08:33:43.733Z,97858.97
2023-04-18T08:36:11.658Z,97864.03
2023-04-18T08:38:38.212Z,97868.53
2023-04-18T08:41:04.797Z,97838.84
2023-04-18T08:43:31.350Z,97839.53
2023-04-18T08:45:59.235Z,97803.19
2023-04-18T08:48:27.816Z,97819.66
2023-04-18T08:50:58.637Z,97854.53
2023-04-18T08:53:27.711Z,97829.19
2023-04-18T08:55:57.342Z,97847.97
2023-04-18T08:58:24.445Z,97815.06
2023-04-18T09:00:53.999Z,97873.50
2023-04-18T09:03:40.243Z,97868.94
2023-04-18T09:06:14.151Z,97812.47
2023-04-18T09:08:41.764Z,97876.66
2023-04-18T09:11:25.799Z,97837.56
2023-04-18T09:13:53.231Z,97844.50
2023-04-18T09:16:22.465Z,97727.31
2023-04-18T09:19:08.595Z,97874.97
2023-04-18T09:21:36.156Z,97796.59
2023-04-18T09:24:24.326Z,97804.56
2023-04-18T09:26:51.327Z,97829.75
2023-04-18T09:29:18.659Z,97790.53
2023-04-18T09:31:54.483Z,97880.28
2023-04-18T09:34:24.848Z,97871.63
2023-04-18T09:37:06.313Z,97877.47
2023-04-18T09:39:32.855Z,97884.56
2023-04-18T09:42:00.005Z,97855.16
2023-04-18T09:44:26.591Z,97866.56
2023-04-18T09:46:53.115Z,97834.31
2023-04-18T09:49:20.247Z,97891.53
2023-04-18T09:51:47.011Z,97814.13
2023-04-18T09:54:15.965Z,97815.88
2023-04-18T09:56:45.778Z,97807.28
2023-04-18T09:59:12.638Z,97816.94
2023-04-18T10:01:44.875Z,97873.69
2023-04-18T10:04:11.633Z,97825.78
2023-04-18T10:06:39.827Z,97831.88
2023-04-18T10:09:07.700Z,97828.25
2023-04-18T10:11:34.265Z,97862.22
2023-04-18T10:14:09.419Z,97866.38
2023-04-18T10:16:36.486Z,97897.81
2023-04-18T10:19:23.633Z,97787.66
2023-04-18T10:21:57.703Z,97818.81
2023-04-18T10:25:04.530Z,97881.66
2023-04-18T10:27:49.225Z,97897.03
2023-04-18T10:30:16.248Z,97863.59
2023-04-18T10:32:42.813Z,97883.66
2023-04-18T10:35:09.677Z,97842.34
2023-04-18T10:37:49.560Z,97820.53
2023-04-18T10:40:16.155Z,97859.69
2023-04-18T10:42:45.796Z,97892.72
2023-04-18T10:45:22.421Z,97827.25
2023-04-18T10:47:49.176Z,97802.25
2023-04-18T10:50:15.977Z,97863.06
2023-04-18T10:52:42.688Z,97857.94
2023-04-18T10:55:20.966Z,97863.31
2023-04-18T10:57:48.376Z,97763.97
2023-04-18T11:00:18.815Z,97797.97
2023-04-18T11:02:50.322Z,97756.50
2023-04-18T11:05:23.363Z,97821.56
2023-04-18T11:07:49.950Z,97803.28
2023-04-18T11:10:19.065Z,97787.03
2023-04-18T11:12:45.913Z,97806.13
2023-04-18T11:18:16.969Z,97864.59
2023-04-18T11:20:47.982Z,97862.03
2023-04-18T11:23:22.863Z,97662.81
2023-04-18T11:25:51.944Z,97826.53
2023-04-18T11:28:19.643Z,97828.25
2023-04-18T11:30:46.167Z,97856.09
2023-04-18T11:33:13.342Z,97858.63
2023-04-18T11:35:44.101Z,97805.56
2023-04-18T11:38:13.026Z,97517.38
2023-04-18T11:40:39.553Z,97852.72
2023-04-18T11:43:06.615Z,97855.25
2023-04-18T11:45:33.205Z,97805.31
2023-04-18T11:48:00.049Z,97831.75
2023-04-18T11:50:26.719Z,97750.72
2023-04-18T11:52:54.024Z,97856.94
2023-04-18T11:55:23.355Z,97742.94
2023-04-18T11:58:00.107Z,97855.25
2023-04-18T12:00:37.465Z,97611.50
2023-04-18T12:03:08.173Z,97861.25
2023-04-18T12:05:36.915Z,97787.41
2023-04-18T12:08:13.545Z,97857.00
2023-04-18T12:10:47.364Z,97802.69
2023-04-18T12:13:14.094Z,97851.88
2023-04-18T12:15:41.489Z,97856.16
2023-04-18T12:18:10.911Z,97660.28
2023-04-18T12:20:46.043Z,97859.53
2023-04-18T12:23:35.386Z,97858.69
2023-04-18T12:26:06.193Z,97717.81
2023-04-18T12:28:33.476Z,97858.69
2023-04-18T12:31:00.371Z,97814.28
2023-04-18T12:33:26.967Z,97849.28
2023-04-18T12:35:53.650Z,97731.69
2023-04-18T12:38:22.205Z,97781.28
2023-04-18T12:40:48.961Z,97851.78
2023-04-18T12:43:15.669Z,97828.19
2023-04-18T12:45:42.194Z,97757.84
2023-04-18T12:48:08.835Z,97854.38
2023-04-18T12:50:35.407Z,97860.38
2023-04-18T12:53:02.190Z,97856.09
2023-04-18T12:55:28.745Z,97850.97
2023-04-18T12:57:55.420Z,97835.31
2023-04-18T13:00:29.709Z,97854.38
2023-04-18T13:02:56.721Z,97857.81
2023-04-18T13:05:25.131Z,97859.47
2023-04-18T13:07:56.250Z,97858.63
2023-04-18T13:10:28.505Z,97848.44
2023-04-18T13:12:55.426Z,97855.25
2023-04-18T13:15:24.832Z,97854.38
2023-04-18T13:17:51.517Z,97853.53
2023-04-18T13:20:18.513Z,97840.59
2023-04-18T13:22:45.096Z,97835.13
2023-04-18T13:25:11.678Z,97857.81
2023-04-18T13:27:41.454Z,97851.81
2023-04-18T13:30:10.023Z,97851.03
2023-04-18T13:32:36.761Z,97792.63
2023-04-18T13:35:03.665Z,97787.47
2023-04-18T13:37:32.168Z,97854.38
2023-04-18T13:39:58.745Z,97847.59
2023-04-18T13:42:25.367Z,97854.38
2023-04-18T13:44:51.972Z,97853.59
2023-04-18T13:47:18.540Z,97854.44
2023-04-18T13:49:45.162Z,97859.47
2023-04-18T13:52:11.730Z,97858.69
2023-04-18T13:54:38.287Z,97860.38
2023-04-18T13:57:11.223Z,97858.69
2023-04-18T13:59:39.858Z,97868.84
2023-04-18T14:02:07.687Z,97805.13
2023-04-18T14:04:34.717Z,97802.69
2023-04-18T14:07:03.091Z,97788.03
2023-04-18T14:09:29.946Z,97864.53
2023-04-18T14:11:58.213Z,97858.56
2023-04-18T14:14:25.805Z,97864.53
2023-04-18T14:16:53.716Z,97861.97
2023-04-18T14:19:20.360Z,97867.06
2023-04-18T14:21:47.429Z,97870.50
2023-04-18T14:24:14.344Z,97866.28
2023-04-18T14:26:40.909Z,97886.63
2023-04-18T14:29:07.435Z,97867.97
2023-04-18T14:31:34.197Z,97869.69
2023-04-18T14:34:00.831Z,97862.84
2023-04-18T14:36:27.698Z,97842.91
2023-04-18T14:38:55.052Z,97858.63
2023-04-18T14:41:21.675Z,97864.59
2023-04-18T14:43:48.384Z,97447.75
2023-04-18T14:46:16.665Z,97743.56
2023-04-18T14:48:47.295Z,97863.78
2023-04-18T14:51:15.492Z,97836.78
2023-04-18T14:53:42.151Z,97809.78
2023-04-18T14:56:08.870Z,97865.47
2023-04-18T14:58:36.188Z,97780.97
2023-04-18T15:01:04.006Z,97856.69
2023-04-18T15:03:30.755Z,97865.47
2023-04-18T15:05:57.606Z,97869.75
2023-04-18T15:08:24.085Z,97863.78
2023-04-18T15:10:50.631Z,97862.09
2023-04-18T15:13:17.292Z,97874.00
2023-04-18T15:15:49.622Z,97874.84
2023-04-18T15:18:16.169Z,97886.75
2023-04-18T15:20:42.742Z,97873.13
2023-04-18T15:23:11.670Z,97791.06
2023-04-18T15:25:38.238Z,97866.03
2023-04-18T15:28:05.804Z,97811.22
2023-04-18T15:30:32.787Z,97809.16
2023-04-18T15:32:59.470Z,97704.91
2023-04-18T15:35:26.107Z,97710.13
2023-04-18T15:37:54.009Z,97882.38
2023-04-18T15:40:20.641Z,97842.34
2023-04-18T15:42:49.409Z,97884.94
2023-04-18T15:45:15.964Z,97870.50
2023-04-18T15:47:42.551Z,97872.94
2023-04-18T15:50:09.427Z,97784.84
2023-04-18T15:52:36.723Z,97821.44
2023-04-18T15:55:03.861Z,97883.31
2023-04-18T15:57:31.002Z,97879.91
2023-04-18T15:59:58.506Z,97715.09
2023-04-18T16:02:25.679Z,97868.41
2023-04-18T16:04:52.303Z,97891.81
2023-04-18T16:07:18.843Z,97892.66
2023-04-18T16:09:45.423Z,97898.63
2023-04-18T16:12:11.935Z,97743.63
2023-04-18T16:14:38.470Z,97877.66
2023-04-18T16:17:05.115Z,97901.19
2023-04-18T16:19:34.481Z,97710.44
2023-04-18T16:22:02.854Z,97894.34
2023-04-18T16:24:30.288Z,97902.84
2023-04-18T16:26:56.955Z,97901.19
2023-04-18T16:29:23.819Z,97899.44
2023-04-18T16:31:51.624Z,97907.97
2023-04-18T16:34:18.331Z,97907.97
2023-04-18T16:36:44.860Z,97846.88
2023-04-18T16:39:11.880Z,97872.19
2023-04-18T16:41:38.409Z,97913.13
2023-04-18T16:44:05.194Z,97895.44
2023-04-18T16:46:32.241Z,97858.09
2023-04-18T16:48:59.086Z,97881.63
2023-04-18T16:51:26.145Z,97828.50
2023-04-18T16:53:52.731Z,97911.38
2023-04-18T16:56:19.328Z,97873.66
2023-04-18T16:58:45.955Z,97692.59
2023-04-18T17:01:12.546Z,97920.72
2023-04-18T17:03:39.288Z,97876.16
2023-04-18T17:06:06.281Z,97928.38
2023-04-18T17:08:33.678Z,97844.59
2023-04-18T17:11:02.132Z,97935.22
2023-04-18T17:13:30.662Z,97888.56
2023-04-18T17:15:57.635Z,97915.97
2023-04-18T17:18:24.559Z,97929.06
2023-04-18T17:20:51.158Z,97942.88
2023-04-18T17:23:17.652Z,97935.88
2023-04-18T17:25:44.207Z,97946.28
2023-04-18T17:28:11.758Z,97942.00
2023-04-18T17:30:42.084Z,97944.56
2023-04-18T17:33:09.381Z,97944.56
2023-04-18T17:35:36.028Z,97942.81
2023-04-18T17:38:03.348Z,97939.44
2023-04-18T17:40:29.988Z,97947.16
2023-04-18T17:42:56.747Z,97951.44
2023-04-18T17:45:23.417Z,97945.50
2023-04-18T17:47:50.894Z,97956.56
2023-04-18T17:50:17.737Z,97954.00
2023-04-18T17:52:46.350Z,97958.31
2023-04-18T17:55:13.038Z,97963.44
2023-04-18T17:57:39.566Z,97958.31
2023-04-18T18:00:10.430Z,97960.00
2023-04-18T18:02:37.498Z,97962.53
2023-04-18T18:05:05.213Z,97964.22
2023-04-18T18:07:34.793Z,97952.09
2023-04-18T18:10:01.987Z,97965.03
2023-04-18T18:12:28.524Z,97967.59
2023-04-18T18:14:57.217Z,97970.06
2023-04-18T18:17:23.889Z,97958.91
2023-04-18T18:19:50.539Z,97966.63
2023-04-18T18:22:17.724Z,97972.56
2023-04-18T18:24:44.229Z,97975.09
2023-04-18T18:27:10.872Z,97971.66
2023-04-18T18:29:37.422Z,97981.88
2023-04-18T18:32:04.011Z,97977.59
2023-04-18T18:34:32.056Z,97980.16
2023-04-18T18:36:58.663Z,97982.69
2023-04-18T18:39:25.167Z,97987.78
2023-04-18T18:41:52.204Z,97983.50
2023-04-18T18:44:18.729Z,97988.63
2023-04-18T18:46:45.438Z,97985.25
2023-04-18T18:49:12.268Z,97993.72
2023-04-18T18:51:38.987Z,98001.38
2023-04-18T18:54:05.522Z,97989.47
2023-04-18T18:56:32.048Z,98002.22
2023-04-18T18:58:58.590Z,98002.22
2023-04-18T19:01:25.190Z,98006.47
2023-04-18T19:03:51.878Z,98006.47
2023-04-18T19:06:18.530Z,98014.13
2023-04-18T19:08:45.065Z,97996.06
2023-04-18T19:11:12.841Z,98004.78
2023-04-18T19:13:39.613Z,98017.53
2023-04-18T19:16:06.234Z,98017.53
2023-04-18T19:18:32.972Z,98011.66
2023-04-18T19:20:59.486Z,98013.31
2023-04-18T19:23:27.714Z,98015.84
2023-04-18T19:25:54.233Z,98020.97
2023-04-18T19:28:22.585Z,98015.78
2023-04-18T19:30:49.458Z,98020.06
2023-04-18T19:33:16.549Z,98023.50
2023-04-18T19:35:43.193Z,98020.06
2023-04-18T19:38:09.713Z,98021.78
2023-04-18T19:40:36.220Z,98011.25
2023-04-18T19:43:02.811Z,98020.00
2023-04-18T19:45:30.477Z,98025.13
2023-04-18T19:47:57.202Z,97973.72
2023-04-18T19:50:23.791Z,98016.69
2023-04-18T19:52:50.361Z,97979.91
2023-04-18T19:55:16.938Z,98014.13
2023-04-18T19:57:43.479Z,98024.34
2023-04-18T20:00:11.504Z,98011.56
2023-04-18T20:02:38.904Z,98004.38
2023-04-18T20:05:06.301Z,98018.34
2023-04-18T20:07:33.203Z,98023.44
2023-04-18T20:09:59.828Z,98026.00
2023-04-18T20:12:26.427Z,98027.72
2023-04-18T20:14:54.798Z,98012.03
2023-04-18T20:17:21.520Z,98023.44
2023-04-18T20:19:49.787Z,98023.44
2023-04-18T20:22:16.802Z,98026.88
2023-04-18T20:24:45.019Z,98021.78
2023-04-18T20:27:11.692Z,98020.91
2023-04-18T20:29:38.206Z,98014.97
2023-04-18T20:32:04.968Z,98024.41
2023-04-18T20:34:31.520Z,98020.97
2023-04-18T20:36:59.917Z,98005.25
2023-04-18T20:39:26.960Z,98021.78
2023-04-18T20:41:54.312Z,98016.75
2023-04-18T20:44:21.769Z,98020.97
2023-04-18T20:46:48.354Z,98020.06
2023-04-18T20:49:15.103Z,98017.53
2023-04-18T20:51:41.851Z,98020.91
2023-04-18T20:54:08.448Z,98019.22
2023-04-18T20:56:36.649Z,98023.44
2023-04-18T20:59:04.730Z,98010.63
2023-04-18T21:01:31.499Z,98011.56
2023-04-18T21:03:58.404Z,98013.25
2023-04-18T21:06:25.432Z,98006.28
2023-04-18T21:08:52.026Z,98009.81
2023-04-18T21:11:18.611Z,98008.97
2023-04-18T21:13:45.115Z,98011.50
2023-04-18T21:16:11.695Z,98003.84
2023-04-18T21:18:38.334Z,98006.41
2023-04-18T21:21:04.912Z,98008.13
2023-04-18T21:23:31.413Z,97974.88
2023-04-18T21:25:57.965Z,98014.06
2023-04-18T21:28:24.549Z,98013.19
2023-04-18T21:30:51.111Z,98014.06
2023-04-18T21:33:19.225Z,98014.91
2023-04-18T21:35:45.751Z,98031.91
2023-04-18T21:38:12.316Z,98005.31
2023-04-18T21:40:38.926Z,98011.50
2023-04-18T21:43:05.504Z,98012.34
2023-04-18T21:45:32.058Z,98019.16
2023-04-18T21:47:58.745Z,98014.84
2023-04-18T21:50:25.446Z,98012.34
2023-04-18T21:52:52.039Z,98008.13
2023-04-18T21:55:18.549Z,98010.69
2023-04-18T21:57:45.029Z,98014.91
2023-04-18T22:00:12.809Z,98007.25
2023-04-18T22:02:39.427Z,98013.94
2023-04-18T22:05:08.793Z,98005.59
2023-04-18T22:07:40.803Z,98011.50
2023-04-18T22:10:17.694Z,98012.28
2023-04-18T22:12:44.373Z,98020.91
2023-04-18T22:15:11.540Z,98010.69
2023-04-18T22:17:38.196Z,98013.19
2023-04-18T22:20:05.866Z,98005.53
2023-04-18T22:22:32.373Z,98008.97
2023-04-18T22:24:58.871Z,98002.97
2023-04-18T22:27:25.523Z,97998.75
2023-04-18T22:29:52.067Z,98000.50
2023-04-18T22:32:18.588Z,98001.31
2023-04-18T22:34:45.348Z,97998.75
2023-04-18T22:37:11.838Z,97992.69
2023-04-18T22:39:38.390Z,97994.44
2023-04-18T22:42:04.996Z,98001.25
2023-04-18T22:44:31.538Z,97999.53
2023-04-18T22:46:58.071Z,97998.69
2023-04-18T22:49:24.653Z,98001.31
2023-04-18T22:51:54.206Z,97991.88
2023-04-18T22:54:21.044Z,97963.03
2023-04-18T22:56:49.137Z,97997.88
2023-04-18T22:59:15.650Z,97995.31
2023-04-18T23:01:42.261Z,97998.69
2023-04-18T23:04:08.873Z,97991.09
2023-04-18T23:06:36.651Z,97996.13
2023-04-18T23:09:06.800Z,97938.78
2023-04-18T23:11:33.300Z,97997.00
2023-04-18T23:13:59.778Z,97995.31
2023-04-18T23:16:26.843Z,97989.34
2023-04-18T23:18:53.364Z,97944.72
2023-04-18T23:21:19.901Z,97997.06
2023-04-18T23:23:46.412Z,97989.34
2023-04-18T23:26:15.789Z,97900.47
2023-04-18T23:28:42.449Z,97878.44
2023-04-18T23:31:09.166Z,97935.34
2023-04-18T23:33:35.756Z,97985.94
2023-04-18T23:36:02.378Z,97967.34
2023-04-18T23:38:29.033Z,97955.59
2023-04-18T23:40:55.599Z,97930.25
2023-04-18T23:43:22.160Z,97959.91
2023-04-18T23:45:48.835Z,97968.16
2023-04-18T23:48:15.374Z,97968.66
2023-04-18T23:50:46.135Z,97911.13
2023-04-18T23:53:12.638Z,97948.69
2023-04-18T23:55:39.142Z,97890.28
2023-04-18T23:58:05.734Z,97944.72
